Malabo, Equatorial Guinea
Current Conditions -  °F | °C
As of 5:00 AM on Tuesday 21 Oct 2014 (Local Time) from FGSL Reporting Station
Thunderstorm Thunderstorm  
Wind Chill: 73°   Ceiling: Unl
Heat Index: 73°   Visibility: 6mi
Dew Point: 73°   Wind: 5mph
Humidity: 100%   Direction: 240°WSW
Pressure: 29.85"   Gusts: NA
Location:  3.74°N, 8.79°E
Report Text: FGSL 210400Z 24004KT 9999 TS FEW006 FEW016CB 23/23 Q1011 NOSIG
Loading
Personal Weather Stations






























Interactive Weather Map New forecast layout! Learn more

10-Day Weather Forecast

Advertisements
Track Severe Weather on mobile